sensor_id;sensor_type;location;lat;lon;timestamp;P1;durP1;ratioP1;P2;durP2;ratioP2
67049;SDS011;53955;52.442;13.284;2023-02-28T00:06:13;7.47;;;3.33;;
67049;SDS011;53955;52.442;13.284;2023-02-28T00:08:40;6.13;;;3.77;;
67049;SDS011;53955;52.442;13.284;2023-02-28T00:11:07;6.47;;;3.60;;
67049;SDS011;53955;52.442;13.284;2023-02-28T00:13:36;7.35;;;3.50;;
67049;SDS011;53955;52.442;13.284;2023-02-28T00:16:04;5.10;;;2.90;;
67049;SDS011;53955;52.442;13.284;2023-02-28T00:18:34;6.47;;;3.47;;
67049;SDS011;53955;52.442;13.284;2023-02-28T00:21:01;8.40;;;3.30;;
67049;SDS011;53955;52.442;13.284;2023-02-28T00:23:28;7.10;;;3.17;;
67049;SDS011;53955;52.442;13.284;2023-02-28T00:25:54;7.73;;;3.90;;
67049;SDS011;53955;52.442;13.284;2023-02-28T00:28:21;6.17;;;3.23;;
67049;SDS011;53955;52.442;13.284;2023-02-28T00:30:48;7.97;;;3.47;;
67049;SDS011;53955;52.442;13.284;2023-02-28T00:33:15;7.90;;;3.80;;
67049;SDS011;53955;52.442;13.284;2023-02-28T00:35:43;7.87;;;4.10;;
67049;SDS011;53955;52.442;13.284;2023-02-28T00:38:11;6.83;;;3.17;;
67049;SDS011;53955;52.442;13.284;2023-02-28T00:40:38;11.73;;;4.17;;
67049;SDS011;53955;52.442;13.284;2023-02-28T00:43:05;7.70;;;3.47;;
67049;SDS011;53955;52.442;13.284;2023-02-28T00:45:31;5.53;;;3.33;;
67049;SDS011;53955;52.442;13.284;2023-02-28T00:47:58;6.17;;;3.83;;
67049;SDS011;53955;52.442;13.284;2023-02-28T00:50:24;8.33;;;4.37;;
67049;SDS011;53955;52.442;13.284;2023-02-28T00:52:52;6.83;;;3.80;;
67049;SDS011;53955;52.442;13.284;2023-02-28T00:55:19;6.93;;;3.80;;
67049;SDS011;53955;52.442;13.284;2023-02-28T00:57:46;7.87;;;3.93;;
67049;SDS011;53955;52.442;13.284;2023-02-28T01:00:12;6.33;;;3.40;;
67049;SDS011;53955;52.442;13.284;2023-02-28T01:02:40;8.03;;;4.03;;
67049;SDS011;53955;52.442;13.284;2023-02-28T01:05:07;9.07;;;3.87;;
67049;SDS011;53955;52.442;13.284;2023-02-28T01:07:34;6.97;;;3.63;;
67049;SDS011;53955;52.442;13.284;2023-02-28T01:10:02;7.97;;;4.30;;
67049;SDS011;53955;52.442;13.284;2023-02-28T01:12:29;7.07;;;4.03;;
67049;SDS011;53955;52.442;13.284;2023-02-28T01:14:55;6.87;;;4.00;;
67049;SDS011;53955;52.442;13.284;2023-02-28T01:17:22;7.73;;;3.90;;
67049;SDS011;53955;52.442;13.284;2023-02-28T01:19:48;7.10;;;4.20;;
67049;SDS011;53955;52.442;13.284;2023-02-28T01:22:15;12.27;;;4.90;;
67049;SDS011;53955;52.442;13.284;2023-02-28T01:24:41;7.50;;;3.93;;
67049;SDS011;53955;52.442;13.284;2023-02-28T01:27:09;7.10;;;4.27;;
67049;SDS011;53955;52.442;13.284;2023-02-28T01:29:36;8.70;;;4.10;;
67049;SDS011;53955;52.442;13.284;2023-02-28T01:32:03;7.37;;;4.03;;
67049;SDS011;53955;52.442;13.284;2023-02-28T01:34:29;8.07;;;4.70;;
67049;SDS011;53955;52.442;13.284;2023-02-28T01:36:56;7.80;;;4.47;;
67049;SDS011;53955;52.442;13.284;2023-02-28T01:39:23;9.77;;;4.50;;
67049;SDS011;53955;52.442;13.284;2023-02-28T01:41:50;9.40;;;4.50;;
67049;SDS011;53955;52.442;13.284;2023-02-28T01:47:22;8.93;;;4.43;;
67049;SDS011;53955;52.442;13.284;2023-02-28T01:49:50;9.20;;;4.20;;
67049;SDS011;53955;52.442;13.284;2023-02-28T01:52:19;9.33;;;4.60;;
67049;SDS011;53955;52.442;13.284;2023-02-28T01:54:47;7.77;;;3.90;;
67049;SDS011;53955;52.442;13.284;2023-02-28T01:57:18;7.23;;;4.50;;
67049;SDS011;53955;52.442;13.284;2023-02-28T01:59:48;7.47;;;4.43;;
67049;SDS011;53955;52.442;13.284;2023-02-28T02:02:20;9.60;;;4.83;;
67049;SDS011;53955;52.442;13.284;2023-02-28T02:04:50;8.33;;;4.47;;
67049;SDS011;53955;52.442;13.284;2023-02-28T02:07:20;7.07;;;4.47;;
67049;SDS011;53955;52.442;13.284;2023-02-28T02:09:47;10.57;;;4.30;;
67049;SDS011;53955;52.442;13.284;2023-02-28T02:12:15;7.20;;;4.40;;
67049;SDS011;53955;52.442;13.284;2023-02-28T02:14:52;7.37;;;4.23;;
67049;SDS011;53955;52.442;13.284;2023-02-28T02:17:32;10.17;;;4.77;;
67049;SDS011;53955;52.442;13.284;2023-02-28T02:20:15;7.93;;;3.80;;
67049;SDS011;53955;52.442;13.284;2023-02-28T02:25:57;8.00;;;4.77;;
67049;SDS011;53955;52.442;13.284;2023-02-28T02:28:45;10.03;;;4.73;;
67049;SDS011;53955;52.442;13.284;2023-02-28T02:31:43;7.33;;;4.23;;
67049;SDS011;53955;52.442;13.284;2023-02-28T02:34:39;9.90;;;4.47;;
67049;SDS011;53955;52.442;13.284;2023-02-28T02:37:14;9.20;;;4.50;;
67049;SDS011;53955;52.442;13.284;2023-02-28T02:39:54;9.00;;;4.63;;
67049;SDS011;53955;52.442;13.284;2023-02-28T02:42:29;7.60;;;4.50;;
67049;SDS011;53955;52.442;13.284;2023-02-28T02:45:03;8.43;;;4.63;;
67049;SDS011;53955;52.442;13.284;2023-02-28T02:47:35;6.67;;;4.17;;
67049;SDS011;53955;52.442;13.284;2023-02-28T02:50:05;7.53;;;4.40;;
67049;SDS011;53955;52.442;13.284;2023-02-28T02:52:37;10.33;;;4.80;;
67049;SDS011;53955;52.442;13.284;2023-02-28T02:55:07;6.50;;;4.33;;
67049;SDS011;53955;52.442;13.284;2023-02-28T02:57:38;6.97;;;4.30;;
67049;SDS011;53955;52.442;13.284;2023-02-28T03:00:09;7.97;;;4.33;;
67049;SDS011;53955;52.442;13.284;2023-02-28T03:02:36;8.43;;;4.47;;
67049;SDS011;53955;52.442;13.284;2023-02-28T03:05:09;11.30;;;5.13;;
67049;SDS011;53955;52.442;13.284;2023-02-28T03:07:43;9.40;;;4.60;;
67049;SDS011;53955;52.442;13.284;2023-02-28T03:10:25;8.07;;;4.17;;
67049;SDS011;53955;52.442;13.284;2023-02-28T03:13:00;9.40;;;4.73;;
67049;SDS011;53955;52.442;13.284;2023-02-28T03:15:38;8.30;;;4.20;;
67049;SDS011;53955;52.442;13.284;2023-02-28T03:18:14;8.47;;;4.60;;
67049;SDS011;53955;52.442;13.284;2023-02-28T03:20:51;7.57;;;4.47;;
67049;SDS011;53955;52.442;13.284;2023-02-28T03:23:29;9.93;;;4.77;;
67049;SDS011;53955;52.442;13.284;2023-02-28T03:26:04;8.53;;;5.07;;
67049;SDS011;53955;52.442;13.284;2023-02-28T03:28:38;10.33;;;4.77;;
67049;SDS011;53955;52.442;13.284;2023-02-28T03:31:16;7.30;;;4.63;;
67049;SDS011;53955;52.442;13.284;2023-02-28T03:33:47;11.47;;;5.57;;
67049;SDS011;53955;52.442;13.284;2023-02-28T03:36:22;8.87;;;4.83;;
67049;SDS011;53955;52.442;13.284;2023-02-28T03:38:53;8.83;;;4.50;;
67049;SDS011;53955;52.442;13.284;2023-02-28T03:41:24;9.37;;;5.13;;
67049;SDS011;53955;52.442;13.284;2023-02-28T03:43:56;7.73;;;4.47;;
67049;SDS011;53955;52.442;13.284;2023-02-28T03:46:27;9.23;;;5.07;;
67049;SDS011;53955;52.442;13.284;2023-02-28T03:48:57;12.57;;;5.43;;
67049;SDS011;53955;52.442;13.284;2023-02-28T03:51:30;10.27;;;6.43;;
67049;SDS011;53955;52.442;13.284;2023-02-28T03:53:59;13.10;;;5.20;;
67049;SDS011;53955;52.442;13.284;2023-02-28T03:56:32;8.63;;;5.10;;
67049;SDS011;53955;52.442;13.284;2023-02-28T03:59:04;9.40;;;5.17;;
67049;SDS011;53955;52.442;13.284;2023-02-28T04:01:36;10.83;;;5.50;;
67049;SDS011;53955;52.442;13.284;2023-02-28T04:04:06;9.50;;;4.87;;
67049;SDS011;53955;52.442;13.284;2023-02-28T04:06:35;9.73;;;5.20;;
67049;SDS011;53955;52.442;13.284;2023-02-28T04:09:02;8.77;;;4.80;;
67049;SDS011;53955;52.442;13.284;2023-02-28T04:11:31;8.83;;;4.80;;
67049;SDS011;53955;52.442;13.284;2023-02-28T04:13:59;8.97;;;5.50;;
67049;SDS011;53955;52.442;13.284;2023-02-28T04:16:27;8.30;;;4.80;;
67049;SDS011;53955;52.442;13.284;2023-02-28T04:18:53;9.27;;;5.10;;
67049;SDS011;53955;52.442;13.284;2023-02-28T04:21:28;10.90;;;5.37;;
67049;SDS011;53955;52.442;13.284;2023-02-28T04:23:56;10.20;;;4.93;;
67049;SDS011;53955;52.442;13.284;2023-02-28T04:26:25;11.87;;;5.23;;
67049;SDS011;53955;52.442;13.284;2023-02-28T04:28:54;9.23;;;5.30;;
67049;SDS011;53955;52.442;13.284;2023-02-28T04:31:21;11.07;;;5.77;;
67049;SDS011;53955;52.442;13.284;2023-02-28T04:33:47;9.70;;;5.03;;
67049;SDS011;53955;52.442;13.284;2023-02-28T04:36:14;8.10;;;4.80;;
67049;SDS011;53955;52.442;13.284;2023-02-28T04:38:42;9.47;;;5.53;;
67049;SDS011;53955;52.442;13.284;2023-02-28T04:41:11;9.53;;;5.07;;
67049;SDS011;53955;52.442;13.284;2023-02-28T04:43:38;11.03;;;6.03;;
67049;SDS011;53955;52.442;13.284;2023-02-28T04:46:05;9.57;;;5.00;;
67049;SDS011;53955;52.442;13.284;2023-02-28T04:48:33;10.40;;;5.23;;
67049;SDS011;53955;52.442;13.284;2023-02-28T04:51:01;8.80;;;5.43;;
67049;SDS011;53955;52.442;13.284;2023-02-28T04:53:28;13.20;;;6.23;;
67049;SDS011;53955;52.442;13.284;2023-02-28T04:55:55;12.90;;;6.10;;
67049;SDS011;53955;52.442;13.284;2023-02-28T04:58:23;7.80;;;5.20;;
67049;SDS011;53955;52.442;13.284;2023-02-28T05:00:51;11.77;;;5.60;;
67049;SDS011;53955;52.442;13.284;2023-02-28T05:03:18;8.90;;;5.23;;
67049;SDS011;53955;52.442;13.284;2023-02-28T05:05:45;8.77;;;5.10;;
67049;SDS011;53955;52.442;13.284;2023-02-28T05:08:12;9.97;;;5.30;;
67049;SDS011;53955;52.442;13.284;2023-02-28T05:10:39;9.40;;;4.90;;
67049;SDS011;53955;52.442;13.284;2023-02-28T05:13:06;8.27;;;5.07;;
67049;SDS011;53955;52.442;13.284;2023-02-28T05:15:34;8.73;;;5.23;;
67049;SDS011;53955;52.442;13.284;2023-02-28T05:18:01;10.67;;;5.10;;
67049;SDS011;53955;52.442;13.284;2023-02-28T05:20:27;12.63;;;4.93;;
67049;SDS011;53955;52.442;13.284;2023-02-28T05:22:54;9.57;;;5.07;;
67049;SDS011;53955;52.442;13.284;2023-02-28T05:25:22;9.57;;;5.10;;
67049;SDS011;53955;52.442;13.284;2023-02-28T05:27:49;9.03;;;5.80;;
67049;SDS011;53955;52.442;13.284;2023-02-28T05:30:15;12.80;;;5.10;;
67049;SDS011;53955;52.442;13.284;2023-02-28T05:32:43;11.43;;;6.20;;
67049;SDS011;53955;52.442;13.284;2023-02-28T05:35:15;8.47;;;4.97;;
67049;SDS011;53955;52.442;13.284;2023-02-28T05:37:42;8.87;;;5.43;;
67049;SDS011;53955;52.442;13.284;2023-02-28T05:40:09;12.03;;;6.03;;
67049;SDS011;53955;52.442;13.284;2023-02-28T05:42:36;15.27;;;5.60;;
67049;SDS011;53955;52.442;13.284;2023-02-28T05:45:04;11.17;;;5.33;;
67049;SDS011;53955;52.442;13.284;2023-02-28T05:47:31;8.33;;;5.03;;
67049;SDS011;53955;52.442;13.284;2023-02-28T05:50:00;11.73;;;5.90;;
67049;SDS011;53955;52.442;13.284;2023-02-28T05:52:26;8.83;;;5.57;;
67049;SDS011;53955;52.442;13.284;2023-02-28T05:54:54;11.37;;;5.90;;
67049;SDS011;53955;52.442;13.284;2023-02-28T05:57:21;12.40;;;6.67;;
67049;SDS011;53955;52.442;13.284;2023-02-28T05:59:48;10.87;;;5.93;;
67049;SDS011;53955;52.442;13.284;2023-02-28T06:02:16;11.83;;;6.43;;
67049;SDS011;53955;52.442;13.284;2023-02-28T06:04:43;10.07;;;5.77;;
67049;SDS011;53955;52.442;13.284;2023-02-28T06:07:12;9.70;;;5.33;;
67049;SDS011;53955;52.442;13.284;2023-02-28T06:09:39;12.00;;;6.07;;
67049;SDS011;53955;52.442;13.284;2023-02-28T06:12:05;14.63;;;6.70;;
67049;SDS011;53955;52.442;13.284;2023-02-28T06:14:35;11.40;;;6.53;;
67049;SDS011;53955;52.442;13.284;2023-02-28T06:17:02;11.47;;;6.67;;
67049;SDS011;53955;52.442;13.284;2023-02-28T06:19:29;12.63;;;6.03;;
67049;SDS011;53955;52.442;13.284;2023-02-28T06:21:56;12.60;;;6.07;;
67049;SDS011;53955;52.442;13.284;2023-02-28T06:24:25;11.83;;;6.00;;
67049;SDS011;53955;52.442;13.284;2023-02-28T06:26:53;12.30;;;6.87;;
67049;SDS011;53955;52.442;13.284;2023-02-28T06:29:20;11.43;;;5.87;;
67049;SDS011;53955;52.442;13.284;2023-02-28T06:31:46;11.73;;;6.47;;
67049;SDS011;53955;52.442;13.284;2023-02-28T06:34:13;14.00;;;5.97;;
67049;SDS011;53955;52.442;13.284;2023-02-28T06:36:40;10.03;;;5.50;;
67049;SDS011;53955;52.442;13.284;2023-02-28T06:39:08;11.43;;;5.83;;
67049;SDS011;53955;52.442;13.284;2023-02-28T06:41:36;11.87;;;5.90;;
67049;SDS011;53955;52.442;13.284;2023-02-28T06:44:05;12.67;;;6.07;;
67049;SDS011;53955;52.442;13.284;2023-02-28T06:46:32;9.93;;;5.50;;
67049;SDS011;53955;52.442;13.284;2023-02-28T06:48:58;11.30;;;6.13;;
67049;SDS011;53955;52.442;13.284;2023-02-28T06:51:25;9.90;;;5.77;;
67049;SDS011;53955;52.442;13.284;2023-02-28T06:53:52;10.30;;;5.83;;
67049;SDS011;53955;52.442;13.284;2023-02-28T06:56:18;11.53;;;6.07;;
67049;SDS011;53955;52.442;13.284;2023-02-28T06:58:47;10.33;;;6.13;;
67049;SDS011;53955;52.442;13.284;2023-02-28T07:01:15;11.43;;;6.07;;
67049;SDS011;53955;52.442;13.284;2023-02-28T07:03:43;11.80;;;5.70;;
67049;SDS011;53955;52.442;13.284;2023-02-28T07:06:10;11.67;;;5.10;;
67049;SDS011;53955;52.442;13.284;2023-02-28T07:08:37;9.73;;;5.30;;
67049;SDS011;53955;52.442;13.284;2023-02-28T07:11:05;10.20;;;5.13;;
67049;SDS011;53955;52.442;13.284;2023-02-28T07:13:32;10.20;;;5.50;;
67049;SDS011;53955;52.442;13.284;2023-02-28T07:16:00;9.40;;;5.43;;
67049;SDS011;53955;52.442;13.284;2023-02-28T07:18:28;10.45;;;4.80;;
67049;SDS011;53955;52.442;13.284;2023-02-28T07:20:55;12.93;;;4.60;;
67049;SDS011;53955;52.442;13.284;2023-02-28T07:23:21;11.25;;;4.78;;
67049;SDS011;53955;52.442;13.284;2023-02-28T07:28:15;9.43;;;4.80;;
67049;SDS011;53955;52.442;13.284;2023-02-28T07:30:41;12.02;;;5.38;;
67049;SDS011;53955;52.442;13.284;2023-02-28T07:33:10;10.70;;;4.78;;
67049;SDS011;53955;52.442;13.284;2023-02-28T07:35:36;8.27;;;4.60;;
67049;SDS011;53955;52.442;13.284;2023-02-28T07:38:03;7.65;;;4.75;;
67049;SDS011;53955;52.442;13.284;2023-02-28T07:40:30;8.13;;;3.97;;
67049;SDS011;53955;52.442;13.284;2023-02-28T07:42:58;7.82;;;4.53;;
67049;SDS011;53955;52.442;13.284;2023-02-28T07:45:26;10.63;;;4.25;;
67049;SDS011;53955;52.442;13.284;2023-02-28T07:47:54;8.00;;;4.25;;
67049;SDS011;53955;52.442;13.284;2023-02-28T07:50:22;6.57;;;4.25;;
67049;SDS011;53955;52.442;13.284;2023-02-28T07:52:49;8.45;;;4.60;;
67049;SDS011;53955;52.442;13.284;2023-02-28T07:55:15;6.95;;;4.28;;
67049;SDS011;53955;52.442;13.284;2023-02-28T07:57:43;6.80;;;4.00;;
67049;SDS011;53955;52.442;13.284;2023-02-28T08:00:10;8.23;;;3.90;;
67049;SDS011;53955;52.442;13.284;2023-02-28T08:02:38;5.85;;;3.47;;
67049;SDS011;53955;52.442;13.284;2023-02-28T08:05:05;4.60;;;2.70;;
67049;SDS011;53955;52.442;13.284;2023-02-28T08:07:34;6.18;;;3.08;;
67049;SDS011;53955;52.442;13.284;2023-02-28T08:10:03;5.40;;;2.90;;
67049;SDS011;53955;52.442;13.284;2023-02-28T08:12:31;4.88;;;2.80;;
67049;SDS011;53955;52.442;13.284;2023-02-28T08:14:58;7.43;;;3.03;;
67049;SDS011;53955;52.442;13.284;2023-02-28T08:17:24;6.57;;;2.88;;
67049;SDS011;53955;52.442;13.284;2023-02-28T08:19:51;7.05;;;2.53;;
67049;SDS011;53955;52.442;13.284;2023-02-28T08:22:18;3.42;;;2.20;;
67049;SDS011;53955;52.442;13.284;2023-02-28T08:24:45;10.65;;;2.80;;
67049;SDS011;53955;52.442;13.284;2023-02-28T08:27:12;4.88;;;2.47;;
67049;SDS011;53955;52.442;13.284;2023-02-28T08:29:39;5.28;;;2.38;;
67049;SDS011;53955;52.442;13.284;2023-02-28T08:32:06;4.10;;;2.45;;
67049;SDS011;53955;52.442;13.284;2023-02-28T08:34:32;3.50;;;2.13;;
67049;SDS011;53955;52.442;13.284;2023-02-28T08:36:59;5.07;;;3.03;;
67049;SDS011;53955;52.442;13.284;2023-02-28T08:39:26;3.83;;;1.98;;
67049;SDS011;53955;52.442;13.284;2023-02-28T08:41:54;4.10;;;1.98;;
67049;SDS011;53955;52.442;13.284;2023-02-28T08:44:20;3.90;;;2.15;;
67049;SDS011;53955;52.442;13.284;2023-02-28T08:46:47;3.10;;;1.73;;
67049;SDS011;53955;52.442;13.284;2023-02-28T08:51:40;10.48;;;3.58;;
67049;SDS011;53955;52.442;13.284;2023-02-28T08:54:07;4.60;;;2.00;;
67049;SDS011;53955;52.442;13.284;2023-02-28T08:56:35;3.08;;;1.80;;
67049;SDS011;53955;52.442;13.284;2023-02-28T08:59:03;3.70;;;1.77;;
67049;SDS011;53955;52.442;13.284;2023-02-28T09:01:30;2.80;;;1.52;;
67049;SDS011;53955;52.442;13.284;2023-02-28T09:03:57;2.78;;;1.48;;
67049;SDS011;53955;52.442;13.284;2023-02-28T09:06:25;4.55;;;2.25;;
67049;SDS011;53955;52.442;13.284;2023-02-28T09:08:52;3.75;;;2.05;;
67049;SDS011;53955;52.442;13.284;2023-02-28T09:11:19;3.67;;;2.08;;
67049;SDS011;53955;52.442;13.284;2023-02-28T09:13:46;4.35;;;1.80;;
67049;SDS011;53955;52.442;13.284;2023-02-28T09:16:14;4.20;;;2.00;;
67049;SDS011;53955;52.442;13.284;2023-02-28T09:18:42;6.47;;;2.78;;
67049;SDS011;53955;52.442;13.284;2023-02-28T09:21:10;3.40;;;2.03;;
67049;SDS011;53955;52.442;13.284;2023-02-28T09:23:39;4.22;;;1.70;;
67049;SDS011;53955;52.442;13.284;2023-02-28T09:26:06;3.58;;;1.77;;
67049;SDS011;53955;52.442;13.284;2023-02-28T09:28:33;3.17;;;1.87;;
67049;SDS011;53955;52.442;13.284;2023-02-28T09:31:00;3.40;;;1.90;;
67049;SDS011;53955;52.442;13.284;2023-02-28T09:33:28;3.90;;;2.20;;
67049;SDS011;53955;52.442;13.284;2023-02-28T09:35:59;3.70;;;2.30;;
67049;SDS011;53955;52.442;13.284;2023-02-28T09:43:26;5.43;;;2.80;;
67049;SDS011;53955;52.442;13.284;2023-02-28T10:28:24;4.07;;;2.37;;
67049;SDS011;53955;52.442;13.284;2023-02-28T10:30:52;3.67;;;2.23;;
67049;SDS011;53955;52.442;13.284;2023-02-28T10:33:22;3.37;;;2.33;;
67049;SDS011;53955;52.442;13.284;2023-02-28T10:35:51;5.47;;;2.40;;
67049;SDS011;53955;52.442;13.284;2023-02-28T10:38:21;3.80;;;2.40;;
67049;SDS011;53955;52.442;13.284;2023-02-28T10:40:49;4.20;;;1.90;;
67049;SDS011;53955;52.442;13.284;2023-02-28T10:43:20;4.00;;;2.10;;
67049;SDS011;53955;52.442;13.284;2023-02-28T10:45:53;4.13;;;2.50;;
67049;SDS011;53955;52.442;13.284;2023-02-28T10:48:36;3.20;;;1.93;;
67049;SDS011;53955;52.442;13.284;2023-02-28T10:51:04;3.90;;;2.20;;
67049;SDS011;53955;52.442;13.284;2023-02-28T10:53:35;4.53;;;2.47;;
67049;SDS011;53955;52.442;13.284;2023-02-28T10:56:09;3.13;;;2.10;;
67049;SDS011;53955;52.442;13.284;2023-02-28T10:58:45;3.57;;;2.00;;
67049;SDS011;53955;52.442;13.284;2023-02-28T11:01:16;4.63;;;2.53;;
67049;SDS011;53955;52.442;13.284;2023-02-28T11:03:44;4.93;;;2.70;;
67049;SDS011;53955;52.442;13.284;2023-02-28T11:06:13;4.60;;;2.40;;
67049;SDS011;53955;52.442;13.284;2023-02-28T11:08:45;5.70;;;2.40;;
67049;SDS011;53955;52.442;13.284;2023-02-28T11:11:14;4.83;;;2.53;;
67049;SDS011;53955;52.442;13.284;2023-02-28T11:13:41;4.10;;;2.50;;
67049;SDS011;53955;52.442;13.284;2023-02-28T11:16:10;4.87;;;2.40;;
67049;SDS011;53955;52.442;13.284;2023-02-28T11:18:40;6.37;;;2.97;;
67049;SDS011;53955;52.442;13.284;2023-02-28T11:21:10;5.27;;;2.73;;
67049;SDS011;53955;52.442;13.284;2023-02-28T11:23:45;6.70;;;2.43;;
67049;SDS011;53955;52.442;13.284;2023-02-28T11:26:13;4.93;;;2.53;;
67049;SDS011;53955;52.442;13.284;2023-02-28T11:28:41;4.03;;;2.37;;
67049;SDS011;53955;52.442;13.284;2023-02-28T11:31:15;4.40;;;2.60;;
67049;SDS011;53955;52.442;13.284;2023-02-28T11:33:45;5.87;;;2.63;;
67049;SDS011;53955;52.442;13.284;2023-02-28T11:36:16;10.23;;;3.43;;
67049;SDS011;53955;52.442;13.284;2023-02-28T11:38:46;5.33;;;2.67;;
67049;SDS011;53955;52.442;13.284;2023-02-28T11:41:21;4.60;;;2.90;;
67049;SDS011;53955;52.442;13.284;2023-02-28T11:47:00;4.70;;;3.20;;
67049;SDS011;53955;52.442;13.284;2023-02-28T11:49:34;7.30;;;2.57;;
67049;SDS011;53955;52.442;13.284;2023-02-28T11:52:10;4.73;;;2.70;;
67049;SDS011;53955;52.442;13.284;2023-02-28T11:57:46;4.50;;;2.47;;
67049;SDS011;53955;52.442;13.284;2023-02-28T12:00:30;5.13;;;2.40;;
67049;SDS011;53955;52.442;13.284;2023-02-28T12:03:08;3.93;;;2.60;;
67049;SDS011;53955;52.442;13.284;2023-02-28T12:05:44;4.63;;;2.77;;
67049;SDS011;53955;52.442;13.284;2023-02-28T12:08:18;5.57;;;3.10;;
67049;SDS011;53955;52.442;13.284;2023-02-28T12:11:02;8.03;;;3.20;;
67049;SDS011;53955;52.442;13.284;2023-02-28T12:13:38;9.80;;;3.23;;
67049;SDS011;53955;52.442;13.284;2023-02-28T12:16:20;6.30;;;3.13;;
67049;SDS011;53955;52.442;13.284;2023-02-28T12:22:00;7.97;;;3.97;;
67049;SDS011;53955;52.442;13.284;2023-02-28T12:24:46;13.57;;;3.70;;
67049;SDS011;53955;52.442;13.284;2023-02-28T12:27:28;6.00;;;3.35;;
67049;SDS011;53955;52.442;13.284;2023-02-28T12:30:00;6.60;;;2.93;;
67049;SDS011;53955;52.442;13.284;2023-02-28T12:32:32;5.60;;;3.53;;
67049;SDS011;53955;52.442;13.284;2023-02-28T12:35:04;6.70;;;3.00;;
67049;SDS011;53955;52.442;13.284;2023-02-28T12:37:40;5.03;;;3.30;;
67049;SDS011;53955;52.442;13.284;2023-02-28T12:40:12;7.07;;;3.13;;
67049;SDS011;53955;52.442;13.284;2023-02-28T12:42:44;6.57;;;3.23;;
67049;SDS011;53955;52.442;13.284;2023-02-28T12:45:15;8.27;;;2.60;;
67049;SDS011;53955;52.442;13.284;2023-02-28T12:47:45;10.70;;;3.53;;
67049;SDS011;53955;52.442;13.284;2023-02-28T12:50:15;6.40;;;2.80;;
67049;SDS011;53955;52.442;13.284;2023-02-28T12:52:46;7.60;;;3.70;;
67049;SDS011;53955;52.442;13.284;2023-02-28T12:55:20;6.83;;;3.33;;
67049;SDS011;53955;52.442;13.284;2023-02-28T12:57:56;5.33;;;3.33;;
67049;SDS011;53955;52.442;13.284;2023-02-28T13:00:29;7.07;;;3.30;;
67049;SDS011;53955;52.442;13.284;2023-02-28T13:06:02;14.07;;;3.57;;
67049;SDS011;53955;52.442;13.284;2023-02-28T13:08:48;5.93;;;3.00;;
67049;SDS011;53955;52.442;13.284;2023-02-28T13:11:28;5.70;;;3.40;;
67049;SDS011;53955;52.442;13.284;2023-02-28T13:13:59;3.83;;;2.60;;
67049;SDS011;53955;52.442;13.284;2023-02-28T13:16:27;6.70;;;3.60;;
67049;SDS011;53955;52.442;13.284;2023-02-28T13:19:16;5.30;;;3.03;;
67049;SDS011;53955;52.442;13.284;2023-02-28T13:21:46;4.83;;;2.90;;
67049;SDS011;53955;52.442;13.284;2023-02-28T13:24:36;5.27;;;3.03;;
67049;SDS011;53955;52.442;13.284;2023-02-28T13:27:22;5.80;;;3.20;;
67049;SDS011;53955;52.442;13.284;2023-02-28T13:29:58;4.47;;;3.13;;
67049;SDS011;53955;52.442;13.284;2023-02-28T13:44:05;5.23;;;3.33;;
67049;SDS011;53955;52.442;13.284;2023-02-28T13:46:35;6.57;;;3.47;;
67049;SDS011;53955;52.442;13.284;2023-02-28T13:49:24;8.70;;;3.43;;
67049;SDS011;53955;52.442;13.284;2023-02-28T13:51:53;10.40;;;3.50;;
67049;SDS011;53955;52.442;13.284;2023-02-28T13:54:34;7.43;;;3.17;;
67049;SDS011;53955;52.442;13.284;2023-02-28T13:57:18;7.83;;;4.00;;
67049;SDS011;53955;52.442;13.284;2023-02-28T14:00:02;5.70;;;3.20;;
67049;SDS011;53955;52.442;13.284;2023-02-28T14:02:51;6.77;;;3.30;;
67049;SDS011;53955;52.442;13.284;2023-02-28T14:05:38;6.63;;;3.17;;
67049;SDS011;53955;52.442;13.284;2023-02-28T14:08:06;5.10;;;3.10;;
67049;SDS011;53955;52.442;13.284;2023-02-28T14:10:39;6.33;;;3.30;;
67049;SDS011;53955;52.442;13.284;2023-02-28T14:13:13;5.47;;;3.17;;
67049;SDS011;53955;52.442;13.284;2023-02-28T14:15:56;8.13;;;3.90;;
67049;SDS011;53955;52.442;13.284;2023-02-28T14:18:26;10.93;;;3.70;;
67049;SDS011;53955;52.442;13.284;2023-02-28T14:20:57;6.07;;;3.40;;
67049;SDS011;53955;52.442;13.284;2023-02-28T14:26:28;7.47;;;3.10;;
67049;SDS011;53955;52.442;13.284;2023-02-28T14:29:16;5.47;;;2.97;;
67049;SDS011;53955;52.442;13.284;2023-02-28T14:31:54;5.33;;;3.40;;
67049;SDS011;53955;52.442;13.284;2023-02-28T14:34:35;5.40;;;3.23;;
67049;SDS011;53955;52.442;13.284;2023-02-28T14:37:05;5.00;;;3.17;;
67049;SDS011;53955;52.442;13.284;2023-02-28T14:39:40;6.70;;;3.57;;
67049;SDS011;53955;52.442;13.284;2023-02-28T14:44:53;6.50;;;3.23;;
67049;SDS011;53955;52.442;13.284;2023-02-28T14:47:21;7.00;;;3.30;;
67049;SDS011;53955;52.442;13.284;2023-02-28T14:49:52;7.77;;;3.67;;
67049;SDS011;53955;52.442;13.284;2023-02-28T14:52:20;7.30;;;3.50;;
67049;SDS011;53955;52.442;13.284;2023-02-28T14:54:51;5.87;;;3.40;;
67049;SDS011;53955;52.442;13.284;2023-02-28T14:57:23;5.37;;;3.50;;
67049;SDS011;53955;52.442;13.284;2023-02-28T15:00:00;7.47;;;3.33;;
67049;SDS011;53955;52.442;13.284;2023-02-28T15:02:35;6.17;;;3.10;;
67049;SDS011;53955;52.442;13.284;2023-02-28T15:05:21;5.10;;;2.87;;
67049;SDS011;53955;52.442;13.284;2023-02-28T15:08:00;5.80;;;3.13;;
67049;SDS011;53955;52.442;13.284;2023-02-28T15:10:28;5.27;;;2.97;;
67049;SDS011;53955;52.442;13.284;2023-02-28T15:12:56;5.77;;;3.30;;
67049;SDS011;53955;52.442;13.284;2023-02-28T15:15:25;7.00;;;3.33;;
67049;SDS011;53955;52.442;13.284;2023-02-28T15:18:01;6.47;;;3.77;;
67049;SDS011;53955;52.442;13.284;2023-02-28T15:20:33;6.30;;;3.40;;
67049;SDS011;53955;52.442;13.284;2023-02-28T15:23:04;7.07;;;3.80;;
67049;SDS011;53955;52.442;13.284;2023-02-28T15:25:30;5.83;;;3.53;;
67049;SDS011;53955;52.442;13.284;2023-02-28T15:27:57;7.50;;;3.47;;
67049;SDS011;53955;52.442;13.284;2023-02-28T15:30:25;6.07;;;3.27;;
67049;SDS011;53955;52.442;13.284;2023-02-28T15:33:04;10.67;;;4.10;;
67049;SDS011;53955;52.442;13.284;2023-02-28T15:35:37;6.27;;;3.40;;
67049;SDS011;53955;52.442;13.284;2023-02-28T15:38:12;5.77;;;3.53;;
67049;SDS011;53955;52.442;13.284;2023-02-28T15:40:42;5.43;;;3.20;;
67049;SDS011;53955;52.442;13.284;2023-02-28T15:43:13;7.10;;;3.60;;
67049;SDS011;53955;52.442;13.284;2023-02-28T15:45:43;6.00;;;3.03;;
67049;SDS011;53955;52.442;13.284;2023-02-28T15:48:19;6.80;;;3.50;;
67049;SDS011;53955;52.442;13.284;2023-02-28T15:50:49;6.27;;;3.50;;
67049;SDS011;53955;52.442;13.284;2023-02-28T15:53:19;6.83;;;3.90;;
67049;SDS011;53955;52.442;13.284;2023-02-28T15:55:55;7.63;;;3.90;;
67049;SDS011;53955;52.442;13.284;2023-02-28T15:58:26;6.27;;;3.83;;
67049;SDS011;53955;52.442;13.284;2023-02-28T16:01:00;7.53;;;4.03;;
67049;SDS011;53955;52.442;13.284;2023-02-28T16:03:42;5.37;;;3.50;;
67049;SDS011;53955;52.442;13.284;2023-02-28T16:09:08;7.63;;;3.50;;
67049;SDS011;53955;52.442;13.284;2023-02-28T16:11:37;7.37;;;3.77;;
67049;SDS011;53955;52.442;13.284;2023-02-28T16:14:08;6.37;;;3.80;;
67049;SDS011;53955;52.442;13.284;2023-02-28T16:16:42;8.77;;;4.00;;
67049;SDS011;53955;52.442;13.284;2023-02-28T16:19:10;5.60;;;3.40;;
67049;SDS011;53955;52.442;13.284;2023-02-28T16:21:36;7.67;;;3.90;;
67049;SDS011;53955;52.442;13.284;2023-02-28T16:24:05;6.70;;;3.53;;
67049;SDS011;53955;52.442;13.284;2023-02-28T16:26:32;8.53;;;3.77;;